Terminal Aerodrome Forecast
Issued by NWS

Home | Current Version | Previous Version | Text Only | Print | Product List | Glossary On
Versions: 1 2 3 4 5 6 7 8 9 10 11 12 13 14 15 16 17
000
FTUS43 KEAX 241100
TAFMKC
TAF
KMKC 241120Z 2412/2512 15010KT P6SM VCSH OVC030
     FM241300 17014KT 6SM -SHRA VCTS OVC025CB
     FM241500 16010G20KT P6SM BKN025
     FM250100 17012G20KT P6SM VCTS BKN030CB
     FM250200 18012G20KT 5SM -TSRA BKN020CB
     FM250500 20012G20KT 5SM -RA VCTS BKN020CB=

USA.gov is the U.S. government's official web portal to all federal, state and local government web resources and services.